sensor_id;sensor_type;location;lat;lon;timestamp;pressure;altitude;pressure_sealevel;temperature;humidity
60479;BME280;46321;48.398;11.754;2023-05-08T00:01:09;96817.75;;;13.92;69.52
60479;BME280;46321;48.398;11.754;2023-05-08T00:03:35;96815.84;;;13.85;69.94
60479;BME280;46321;48.398;11.754;2023-05-08T00:06:04;96818.31;;;13.87;69.71
60479;BME280;46321;48.398;11.754;2023-05-08T00:08:29;96820.97;;;13.87;69.72
60479;BME280;46321;48.398;11.754;2023-05-08T00:10:55;96822.63;;;13.88;70.18
60479;BME280;46321;48.398;11.754;2023-05-08T00:13:20;96827.94;;;13.88;69.87
60479;BME280;46321;48.398;11.754;2023-05-08T00:15:45;96825.41;;;13.80;70.24
60479;BME280;46321;48.398;11.754;2023-05-08T00:18:11;96824.38;;;13.81;70.22
60479;BME280;46321;48.398;11.754;2023-05-08T00:20:36;96822.34;;;13.83;70.43
60479;BME280;46321;48.398;11.754;2023-05-08T00:23:02;96831.28;;;13.75;70.28
60479;BME280;46321;48.398;11.754;2023-05-08T00:25:27;96837.72;;;13.66;70.12
60479;BME280;46321;48.398;11.754;2023-05-08T00:27:52;96834.31;;;13.72;70.05
60479;BME280;46321;48.398;11.754;2023-05-08T00:30:18;96836.97;;;13.72;70.34
60479;BME280;46321;48.398;11.754;2023-05-08T00:32:43;96838.63;;;13.73;70.18
60479;BME280;46321;48.398;11.754;2023-05-08T00:35:09;96834.75;;;13.76;69.89
60479;BME280;46321;48.398;11.754;2023-05-08T00:37:34;96834.59;;;13.77;69.89
60479;BME280;46321;48.398;11.754;2023-05-08T00:40:01;96830.56;;;13.66;70.11
60479;BME280;46321;48.398;11.754;2023-05-08T00:42:28;96835.63;;;13.61;70.23
60479;BME280;46321;48.398;11.754;2023-05-08T00:44:53;96833.16;;;13.59;70.60
60479;BME280;46321;48.398;11.754;2023-05-08T00:47:19;96846.13;;;13.69;70.59
60479;BME280;46321;48.398;11.754;2023-05-08T00:49:45;96844.94;;;13.72;70.07
60479;BME280;46321;48.398;11.754;2023-05-08T00:52:11;96843.25;;;13.64;70.14
60479;BME280;46321;48.398;11.754;2023-05-08T00:54:37;96847.88;;;13.62;70.63
60479;BME280;46321;48.398;11.754;2023-05-08T00:57:05;96845.41;;;13.60;70.18
60479;BME280;46321;48.398;11.754;2023-05-08T00:59:31;96855.94;;;13.54;70.43
60479;BME280;46321;48.398;11.754;2023-05-08T01:01:58;96855.22;;;13.60;70.34
60479;BME280;46321;48.398;11.754;2023-05-08T01:04:25;96853.69;;;13.50;71.00
60479;BME280;46321;48.398;11.754;2023-05-08T01:06:50;96856.78;;;13.54;70.26
60479;BME280;46321;48.398;11.754;2023-05-08T01:09:16;96867.78;;;13.51;70.12
60479;BME280;46321;48.398;11.754;2023-05-08T01:14:31;96866.69;;;13.45;70.52
60479;BME280;46321;48.398;11.754;2023-05-08T01:17:13;96869.25;;;13.38;71.04
60479;BME280;46321;48.398;11.754;2023-05-08T01:20:08;96869.72;;;13.42;70.91
60479;BME280;46321;48.398;11.754;2023-05-08T01:22:59;96865.59;;;13.24;71.52
60479;BME280;46321;48.398;11.754;2023-05-08T01:25:54;96863.31;;;13.21;71.82
60479;BME280;46321;48.398;11.754;2023-05-08T01:29:08;96853.97;;;13.25;71.78
60479;BME280;46321;48.398;11.754;2023-05-08T01:34:43;96859.38;;;13.17;73.22
60479;BME280;46321;48.398;11.754;2023-05-08T01:37:16;96860.81;;;13.20;72.90
60479;BME280;46321;48.398;11.754;2023-05-08T01:40:08;96860.00;;;13.19;73.32
60479;BME280;46321;48.398;11.754;2023-05-08T01:42:48;96865.69;;;13.16;73.20
60479;BME280;46321;48.398;11.754;2023-05-08T01:45:21;96864.31;;;13.05;73.91
60479;BME280;46321;48.398;11.754;2023-05-08T01:47:54;96874.00;;;12.98;74.39
60479;BME280;46321;48.398;11.754;2023-05-08T01:50:30;96869.94;;;12.87;74.60
60479;BME280;46321;48.398;11.754;2023-05-08T01:53:02;96878.38;;;12.90;74.58
60479;BME280;46321;48.398;11.754;2023-05-08T01:55:32;96880.78;;;12.85;74.87
60479;BME280;46321;48.398;11.754;2023-05-08T01:57:59;96877.16;;;12.78;74.95
60479;BME280;46321;48.398;11.754;2023-05-08T02:00:26;96882.81;;;12.75;75.35
60479;BME280;46321;48.398;11.754;2023-05-08T02:02:55;96886.69;;;12.72;75.62
60479;BME280;46321;48.398;11.754;2023-05-08T02:05:22;96884.38;;;13.23;73.33
60479;BME280;46321;48.398;11.754;2023-05-08T02:07:49;96889.25;;;13.34;72.63
60479;BME280;46321;48.398;11.754;2023-05-08T02:10:16;96888.81;;;13.31;72.95
60479;BME280;46321;48.398;11.754;2023-05-08T02:12:42;96894.66;;;13.26;72.16
60479;BME280;46321;48.398;11.754;2023-05-08T02:15:09;96892.16;;;13.24;72.50
60479;BME280;46321;48.398;11.754;2023-05-08T02:17:38;96889.34;;;13.26;72.72
60479;BME280;46321;48.398;11.754;2023-05-08T02:20:05;96896.38;;;13.19;72.22
60479;BME280;46321;48.398;11.754;2023-05-08T02:22:31;96897.22;;;13.19;72.32
60479;BME280;46321;48.398;11.754;2023-05-08T02:24:58;96908.56;;;13.13;72.76
60479;BME280;46321;48.398;11.754;2023-05-08T02:27:26;96900.59;;;13.13;72.70
60479;BME280;46321;48.398;11.754;2023-05-08T02:29:53;96900.41;;;13.14;72.69
60479;BME280;46321;48.398;11.754;2023-05-08T02:32:20;96898.56;;;13.00;73.39
60479;BME280;46321;48.398;11.754;2023-05-08T02:34:49;96898.66;;;13.07;73.37
60479;BME280;46321;48.398;11.754;2023-05-08T02:37:17;96909.81;;;13.02;73.38
60479;BME280;46321;48.398;11.754;2023-05-08T02:39:44;96910.94;;;13.08;72.73
60479;BME280;46321;48.398;11.754;2023-05-08T02:42:11;96911.38;;;12.96;72.34
60479;BME280;46321;48.398;11.754;2023-05-08T02:44:36;96920.84;;;12.99;72.31
60479;BME280;46321;48.398;11.754;2023-05-08T02:47:20;96919.00;;;12.99;72.01
60479;BME280;46321;48.398;11.754;2023-05-08T02:50:02;96919.34;;;12.96;72.15
60479;BME280;46321;48.398;11.754;2023-05-08T02:52:51;96921.19;;;12.96;72.69
60479;BME280;46321;48.398;11.754;2023-05-08T02:58:05;96909.16;;;12.85;73.23
60479;BME280;46321;48.398;11.754;2023-05-08T03:00:46;96914.13;;;12.88;73.27
60479;BME280;46321;48.398;11.754;2023-05-08T03:03:24;96916.19;;;12.77;73.45
60479;BME280;46321;48.398;11.754;2023-05-08T03:05:53;96912.88;;;12.75;73.44
60479;BME280;46321;48.398;11.754;2023-05-08T03:08:28;96921.38;;;12.70;73.32
60479;BME280;46321;48.398;11.754;2023-05-08T03:10:57;96917.72;;;12.71;72.97
60479;BME280;46321;48.398;11.754;2023-05-08T03:13:26;96915.06;;;12.71;73.05
60479;BME280;46321;48.398;11.754;2023-05-08T03:15:55;96917.91;;;12.70;72.19
60479;BME280;46321;48.398;11.754;2023-05-08T03:18:27;96921.91;;;12.66;71.99
60479;BME280;46321;48.398;11.754;2023-05-08T03:20:57;96925.69;;;12.48;71.86
60479;BME280;46321;48.398;11.754;2023-05-08T03:23:25;96922.38;;;12.46;71.70
60479;BME280;46321;48.398;11.754;2023-05-08T03:25:52;96919.47;;;12.41;71.85
60479;BME280;46321;48.398;11.754;2023-05-08T03:28:18;96926.53;;;12.17;72.74
60479;BME280;46321;48.398;11.754;2023-05-08T03:30:44;96920.09;;;12.11;73.12
60479;BME280;46321;48.398;11.754;2023-05-08T03:33:11;96928.47;;;12.31;72.25
60479;BME280;46321;48.398;11.754;2023-05-08T03:35:38;96925.63;;;12.33;72.06
60479;BME280;46321;48.398;11.754;2023-05-08T03:38:04;96920.50;;;12.31;71.45
60479;BME280;46321;48.398;11.754;2023-05-08T03:40:32;96924.53;;;12.27;71.46
60479;BME280;46321;48.398;11.754;2023-05-08T03:43:01;96931.38;;;12.13;70.61
60479;BME280;46321;48.398;11.754;2023-05-08T03:45:29;96930.72;;;12.11;70.43
60479;BME280;46321;48.398;11.754;2023-05-08T03:47:55;96935.94;;;11.96;70.18
60479;BME280;46321;48.398;11.754;2023-05-08T03:50:22;96932.41;;;12.03;70.22
60479;BME280;46321;48.398;11.754;2023-05-08T03:52:48;96936.22;;;12.01;69.94
60479;BME280;46321;48.398;11.754;2023-05-08T03:55:14;96934.31;;;11.86;69.54
60479;BME280;46321;48.398;11.754;2023-05-08T03:57:46;96944.88;;;11.95;69.61
60479;BME280;46321;48.398;11.754;2023-05-08T04:00:31;96941.28;;;11.79;69.51
60479;BME280;46321;48.398;11.754;2023-05-08T04:03:12;96938.22;;;11.67;69.79
60479;BME280;46321;48.398;11.754;2023-05-08T04:05:50;96939.72;;;11.53;70.15
60479;BME280;46321;48.398;11.754;2023-05-08T04:08:26;96940.06;;;11.58;70.13
60479;BME280;46321;48.398;11.754;2023-05-08T04:11:07;96944.81;;;11.63;70.19
60479;BME280;46321;48.398;11.754;2023-05-08T04:13:38;96943.69;;;11.57;70.11
60479;BME280;46321;48.398;11.754;2023-05-08T04:16:19;96943.06;;;11.38;71.13
60479;BME280;46321;48.398;11.754;2023-05-08T04:18:46;96953.53;;;11.40;71.16
60479;BME280;46321;48.398;11.754;2023-05-08T04:21:18;96953.00;;;11.36;71.20
60479;BME280;46321;48.398;11.754;2023-05-08T04:23:45;96952.47;;;11.49;70.75
60479;BME280;46321;48.398;11.754;2023-05-08T04:26:13;96968.75;;;11.29;70.06
60479;BME280;46321;48.398;11.754;2023-05-08T04:28:39;96959.34;;;11.18;70.35
60479;BME280;46321;48.398;11.754;2023-05-08T04:31:05;96970.44;;;11.14;70.52
60479;BME280;46321;48.398;11.754;2023-05-08T04:33:33;96963.16;;;10.99;70.39
60479;BME280;46321;48.398;11.754;2023-05-08T04:36:02;96966.31;;;11.11;70.56
60479;BME280;46321;48.398;11.754;2023-05-08T04:38:27;96966.97;;;11.05;70.04
60479;BME280;46321;48.398;11.754;2023-05-08T04:40:53;96969.47;;;10.90;70.83
60479;BME280;46321;48.398;11.754;2023-05-08T04:43:19;96977.41;;;10.81;70.35
60479;BME280;46321;48.398;11.754;2023-05-08T04:45:44;96976.88;;;10.77;70.64
60479;BME280;46321;48.398;11.754;2023-05-08T04:48:10;96982.34;;;10.84;70.67
60479;BME280;46321;48.398;11.754;2023-05-08T04:50:35;96977.06;;;11.01;69.80
60479;BME280;46321;48.398;11.754;2023-05-08T04:53:00;96978.22;;;10.98;69.79
60479;BME280;46321;48.398;11.754;2023-05-08T04:55:26;96987.00;;;10.91;69.98
60479;BME280;46321;48.398;11.754;2023-05-08T04:57:51;96986.66;;;11.02;69.93
60479;BME280;46321;48.398;11.754;2023-05-08T05:00:17;96996.78;;;10.98;70.13
60479;BME280;46321;48.398;11.754;2023-05-08T05:02:42;96996.44;;;11.02;69.85
60479;BME280;46321;48.398;11.754;2023-05-08T05:05:07;96996.78;;;10.98;70.00
60479;BME280;46321;48.398;11.754;2023-05-08T05:07:33;97000.56;;;10.96;70.21
60479;BME280;46321;48.398;11.754;2023-05-08T05:09:58;97002.06;;;10.90;70.29
60479;BME280;46321;48.398;11.754;2023-05-08T05:12:24;97009.34;;;10.80;70.30
60479;BME280;46321;48.398;11.754;2023-05-08T05:14:49;97001.91;;;10.83;70.42
60479;BME280;46321;48.398;11.754;2023-05-08T05:17:15;97010.50;;;10.85;70.61
60479;BME280;46321;48.398;11.754;2023-05-08T05:19:40;97012.50;;;10.75;70.49
60479;BME280;46321;48.398;11.754;2023-05-08T05:22:05;97016.69;;;10.42;72.33
60479;BME280;46321;48.398;11.754;2023-05-08T05:24:32;97013.88;;;10.44;73.02
60479;BME280;46321;48.398;11.754;2023-05-08T05:27:00;97019.16;;;10.44;73.15
60479;BME280;46321;48.398;11.754;2023-05-08T05:29:25;97011.63;;;10.58;72.87
60479;BME280;46321;48.398;11.754;2023-05-08T05:31:50;97019.91;;;10.55;72.74
60479;BME280;46321;48.398;11.754;2023-05-08T05:34:15;97012.00;;;10.88;71.95
60479;BME280;46321;48.398;11.754;2023-05-08T05:36:41;97027.25;;;11.11;70.94
60479;BME280;46321;48.398;11.754;2023-05-08T05:39:06;97022.63;;;11.13;70.14
60479;BME280;46321;48.398;11.754;2023-05-08T05:41:31;97025.59;;;11.27;69.69
60479;BME280;46321;48.398;11.754;2023-05-08T05:43:56;97020.28;;;11.18;70.01
60479;BME280;46321;48.398;11.754;2023-05-08T05:46:22;97030.53;;;11.05;69.54
60479;BME280;46321;48.398;11.754;2023-05-08T05:48:52;97031.22;;;11.15;69.59
60479;BME280;46321;48.398;11.754;2023-05-08T05:51:17;97033.84;;;10.98;69.62
60479;BME280;46321;48.398;11.754;2023-05-08T05:53:42;97033.84;;;11.07;69.54
60479;BME280;46321;48.398;11.754;2023-05-08T05:56:07;97026.56;;;10.92;69.95
60479;BME280;46321;48.398;11.754;2023-05-08T05:58:33;97038.78;;;10.76;69.15
60479;BME280;46321;48.398;11.754;2023-05-08T06:00:58;97049.09;;;10.96;69.34
60479;BME280;46321;48.398;11.754;2023-05-08T06:03:25;97043.59;;;10.73;69.16
60479;BME280;46321;48.398;11.754;2023-05-08T06:05:50;97045.44;;;10.89;68.52
60479;BME280;46321;48.398;11.754;2023-05-08T06:08:16;97042.22;;;10.52;69.49
60479;BME280;46321;48.398;11.754;2023-05-08T06:10:43;97043.41;;;10.66;69.30
60479;BME280;46321;48.398;11.754;2023-05-08T06:13:08;97037.41;;;10.56;69.91
60479;BME280;46321;48.398;11.754;2023-05-08T06:15:33;97038.56;;;10.53;70.08
60479;BME280;46321;48.398;11.754;2023-05-08T06:17:58;97048.38;;;10.61;70.45
60479;BME280;46321;48.398;11.754;2023-05-08T06:20:24;97049.03;;;10.63;69.93
60479;BME280;46321;48.398;11.754;2023-05-08T06:22:49;97050.72;;;10.81;69.94
60479;BME280;46321;48.398;11.754;2023-05-08T06:25:14;97048.72;;;10.66;70.33
60479;BME280;46321;48.398;11.754;2023-05-08T06:27:41;97048.06;;;10.64;70.93
60479;BME280;46321;48.398;11.754;2023-05-08T06:30:06;97043.25;;;10.84;70.06
60479;BME280;46321;48.398;11.754;2023-05-08T06:32:32;97057.34;;;10.85;70.10
60479;BME280;46321;48.398;11.754;2023-05-08T06:34:57;97055.69;;;10.84;70.91
60479;BME280;46321;48.398;11.754;2023-05-08T06:37:23;97059.19;;;11.01;70.10
60479;BME280;46321;48.398;11.754;2023-05-08T06:39:48;97055.56;;;11.10;70.29
60479;BME280;46321;48.398;11.754;2023-05-08T06:42:13;97062.69;;;11.27;68.42
60479;BME280;46321;48.398;11.754;2023-05-08T06:44:39;97065.31;;;11.43;67.14
60479;BME280;46321;48.398;11.754;2023-05-08T06:47:04;97064.50;;;11.60;67.08
60479;BME280;46321;48.398;11.754;2023-05-08T06:49:30;97059.72;;;11.47;66.74
60479;BME280;46321;48.398;11.754;2023-05-08T06:51:56;97066.31;;;11.26;67.13
60479;BME280;46321;48.398;11.754;2023-05-08T06:54:21;97060.88;;;11.44;66.78
60479;BME280;46321;48.398;11.754;2023-05-08T06:56:46;97061.00;;;11.59;66.38
60479;BME280;46321;48.398;11.754;2023-05-08T06:59:11;97058.50;;;11.83;65.66
60479;BME280;46321;48.398;11.754;2023-05-08T07:01:37;97063.81;;;11.83;65.49
60479;BME280;46321;48.398;11.754;2023-05-08T07:04:03;97063.66;;;11.76;65.67
60479;BME280;46321;48.398;11.754;2023-05-08T07:06:29;97064.09;;;11.88;66.36
60479;BME280;46321;48.398;11.754;2023-05-08T07:08:55;97069.06;;;11.99;66.40
60479;BME280;46321;48.398;11.754;2023-05-08T07:11:20;97066.56;;;11.98;66.13
60479;BME280;46321;48.398;11.754;2023-05-08T07:13:46;97069.75;;;11.76;66.34
60479;BME280;46321;48.398;11.754;2023-05-08T07:16:13;97071.75;;;11.83;66.54
60479;BME280;46321;48.398;11.754;2023-05-08T07:18:38;97066.44;;;11.91;66.48
60479;BME280;46321;48.398;11.754;2023-05-08T07:21:03;97070.59;;;11.77;66.17
60479;BME280;46321;48.398;11.754;2023-05-08T07:23:28;97079.22;;;11.54;66.85
60479;BME280;46321;48.398;11.754;2023-05-08T07:25:54;97069.44;;;11.63;67.08
60479;BME280;46321;48.398;11.754;2023-05-08T07:28:19;97069.25;;;11.89;67.76
60479;BME280;46321;48.398;11.754;2023-05-08T07:30:45;97075.19;;;12.00;66.54
60479;BME280;46321;48.398;11.754;2023-05-08T07:33:11;97073.84;;;12.04;65.42
60479;BME280;46321;48.398;11.754;2023-05-08T07:35:39;97079.22;;;11.79;66.41
60479;BME280;46321;48.398;11.754;2023-05-08T07:38:05;97075.69;;;11.95;66.02
60479;BME280;46321;48.398;11.754;2023-05-08T07:40:30;97068.88;;;12.18;65.72
60479;BME280;46321;48.398;11.754;2023-05-08T07:42:56;97076.25;;;12.71;64.63
60479;BME280;46321;48.398;11.754;2023-05-08T07:45:21;97085.66;;;12.82;64.50
60479;BME280;46321;48.398;11.754;2023-05-08T07:57:00;97074.91;;;13.31;62.66
60479;BME280;46321;48.398;11.754;2023-05-08T07:59:25;97081.25;;;12.98;63.05
60479;BME280;46321;48.398;11.754;2023-05-08T08:01:50;97078.31;;;13.16;62.79
60479;BME280;46321;48.398;11.754;2023-05-08T08:04:16;97072.22;;;13.07;62.90
60479;BME280;46321;48.398;11.754;2023-05-08T08:06:42;97074.53;;;13.34;61.90
60479;BME280;46321;48.398;11.754;2023-05-08T08:09:07;97071.56;;;13.05;62.04
60479;BME280;46321;48.398;11.754;2023-05-08T08:11:32;97074.56;;;12.78;63.60
60479;BME280;46321;48.398;11.754;2023-05-08T08:13:58;97071.56;;;13.05;62.44
60479;BME280;46321;48.398;11.754;2023-05-08T08:16:23;97079.03;;;13.57;61.99
60479;BME280;46321;48.398;11.754;2023-05-08T08:18:48;97086.66;;;13.51;61.56
60479;BME280;46321;48.398;11.754;2023-05-08T08:21:14;97081.50;;;13.11;61.52
60479;BME280;46321;48.398;11.754;2023-05-08T08:23:39;97082.44;;;13.66;60.08
60479;BME280;46321;48.398;11.754;2023-05-08T08:26:04;97093.94;;;13.81;60.63
60479;BME280;46321;48.398;11.754;2023-05-08T08:28:30;97078.63;;;13.60;61.10
60479;BME280;46321;48.398;11.754;2023-05-08T08:30:55;97084.19;;;13.73;60.28
60479;BME280;46321;48.398;11.754;2023-05-08T08:33:21;97074.50;;;14.11;59.97
60479;BME280;46321;48.398;11.754;2023-05-08T08:35:46;97069.75;;;14.74;58.58
60479;BME280;46321;48.398;11.754;2023-05-08T08:38:12;97081.31;;;14.66;57.64
60479;BME280;46321;48.398;11.754;2023-05-08T08:40:41;97074.75;;;14.84;57.50
60479;BME280;46321;48.398;11.754;2023-05-08T08:43:07;97081.16;;;15.05;57.00
60479;BME280;46321;48.398;11.754;2023-05-08T08:45:33;97088.75;;;14.71;57.27
60479;BME280;46321;48.398;11.754;2023-05-08T08:48:02;97074.63;;;14.55;58.68
60479;BME280;46321;48.398;11.754;2023-05-08T08:50:31;97086.28;;;15.28;56.46
60479;BME280;46321;48.398;11.754;2023-05-08T08:53:07;97074.50;;;15.16;56.60
60479;BME280;46321;48.398;11.754;2023-05-08T08:55:38;97083.25;;;15.31;57.44
60479;BME280;46321;48.398;11.754;2023-05-08T08:58:20;97077.16;;;14.94;58.30
60479;BME280;46321;48.398;11.754;2023-05-08T09:00:46;97069.03;;;15.24;57.37
60479;BME280;46321;48.398;11.754;2023-05-08T09:03:12;97068.84;;;15.48;56.84
60479;BME280;46321;48.398;11.754;2023-05-08T09:05:38;97063.75;;;16.10;56.51
60479;BME280;46321;48.398;11.754;2023-05-08T09:08:04;97077.69;;;15.77;55.46
60479;BME280;46321;48.398;11.754;2023-05-08T09:10:29;97065.66;;;16.23;55.50
60479;BME280;46321;48.398;11.754;2023-05-08T09:12:55;97067.53;;;16.79;53.79
60479;BME280;46321;48.398;11.754;2023-05-08T09:15:20;97061.00;;;17.02;53.65
60479;BME280;46321;48.398;11.754;2023-05-08T09:17:46;97073.09;;;16.84;53.05
60479;BME280;46321;48.398;11.754;2023-05-08T09:20:13;97065.34;;;17.10;51.92
60479;BME280;46321;48.398;11.754;2023-05-08T09:22:41;97065.91;;;16.35;53.44
60479;BME280;46321;48.398;11.754;2023-05-08T09:25:07;97063.78;;;16.59;52.96
60479;BME280;46321;48.398;11.754;2023-05-08T09:27:32;97055.38;;;16.76;52.42
60479;BME280;46321;48.398;11.754;2023-05-08T09:30:04;97063.78;;;17.49;51.46
60479;BME280;46321;48.398;11.754;2023-05-08T09:32:32;97058.81;;;17.33;51.97
60479;BME280;46321;48.398;11.754;2023-05-08T09:34:57;97064.25;;;18.40;50.80
60479;BME280;46321;48.398;11.754;2023-05-08T09:37:24;97054.97;;;19.53;49.34
60479;BME280;46321;48.398;11.754;2023-05-08T09:39:50;97062.41;;;19.77;46.38
60479;BME280;46321;48.398;11.754;2023-05-08T09:42:15;97053.16;;;18.75;48.40
60479;BME280;46321;48.398;11.754;2023-05-08T09:44:48;97052.38;;;19.07;47.03
60479;BME280;46321;48.398;11.754;2023-05-08T09:47:16;97044.50;;;19.45;47.60
60479;BME280;46321;48.398;11.754;2023-05-08T09:50:02;97059.84;;;18.66;48.44
60479;BME280;46321;48.398;11.754;2023-05-08T09:52:29;97056.81;;;18.42;48.03
60479;BME280;46321;48.398;11.754;2023-05-08T09:55:02;97064.09;;;18.35;48.09
60479;BME280;46321;48.398;11.754;2023-05-08T09:57:28;97055.25;;;19.13;49.57
60479;BME280;46321;48.398;11.754;2023-05-08T10:00:07;97055.34;;;19.57;46.34
60479;BME280;46321;48.398;11.754;2023-05-08T10:02:35;97049.31;;;20.44;46.12
60479;BME280;46321;48.398;11.754;2023-05-08T10:05:01;97058.38;;;21.78;41.94
60479;BME280;46321;48.398;11.754;2023-05-08T10:07:28;97060.41;;;20.85;42.77
60479;BME280;46321;48.398;11.754;2023-05-08T10:09:58;97051.13;;;20.12;45.76
60479;BME280;46321;48.398;11.754;2023-05-08T10:12:25;97060.78;;;19.50;45.33
60479;BME280;46321;48.398;11.754;2023-05-08T10:14:50;97059.41;;;20.48;43.80
60479;BME280;46321;48.398;11.754;2023-05-08T10:17:22;97054.53;;;20.57;43.53
60479;BME280;46321;48.398;11.754;2023-05-08T10:19:54;97056.34;;;20.26;45.12
60479;BME280;46321;48.398;11.754;2023-05-08T10:22:24;97053.44;;;19.64;47.20
60479;BME280;46321;48.398;11.754;2023-05-08T10:24:52;97051.38;;;19.85;46.06
60479;BME280;46321;48.398;11.754;2023-05-08T10:27:22;97060.19;;;19.93;45.06
60479;BME280;46321;48.398;11.754;2023-05-08T10:29:55;97054.78;;;20.37;43.98
60479;BME280;46321;48.398;11.754;2023-05-08T10:32:24;97047.53;;;18.91;46.69
60479;BME280;46321;48.398;11.754;2023-05-08T10:34:58;97047.97;;;18.87;47.02
60479;BME280;46321;48.398;11.754;2023-05-08T10:37:25;97047.00;;;19.65;45.54
60479;BME280;46321;48.398;11.754;2023-05-08T10:39:53;97043.84;;;19.50;46.67
60479;BME280;46321;48.398;11.754;2023-05-08T10:42:18;97043.38;;;19.27;46.67
60479;BME280;46321;48.398;11.754;2023-05-08T10:44:44;97041.13;;;18.92;48.27
60479;BME280;46321;48.398;11.754;2023-05-08T10:50:13;97038.84;;;18.56;48.37
60479;BME280;46321;48.398;11.754;2023-05-08T10:52:50;97046.75;;;18.17;49.60
60479;BME280;46321;48.398;11.754;2023-05-08T10:55:31;97044.38;;;17.74;50.45
60479;BME280;46321;48.398;11.754;2023-05-08T10:58:10;97034.84;;;18.19;50.40
60479;BME280;46321;48.398;11.754;2023-05-08T11:03:15;97026.81;;;18.06;50.33
60479;BME280;46321;48.398;11.754;2023-05-08T11:05:47;97023.25;;;18.33;52.20
60479;BME280;46321;48.398;11.754;2023-05-08T11:08:14;97015.78;;;18.41;49.63
60479;BME280;46321;48.398;11.754;2023-05-08T11:10:42;97021.03;;;18.23;51.04
60479;BME280;46321;48.398;11.754;2023-05-08T11:13:10;97023.84;;;18.81;49.99
60479;BME280;46321;48.398;11.754;2023-05-08T11:15:38;97019.56;;;18.73;50.01
60479;BME280;46321;48.398;11.754;2023-05-08T11:18:10;97024.06;;;19.18;49.94
60479;BME280;46321;48.398;11.754;2023-05-08T11:20:57;97017.63;;;18.87;49.18
60479;BME280;46321;48.398;11.754;2023-05-08T11:23:24;97017.84;;;19.18;48.10
60479;BME280;46321;48.398;11.754;2023-05-08T11:26:04;97027.81;;;19.10;47.48
60479;BME280;46321;48.398;11.754;2023-05-08T11:28:31;97018.63;;;18.53;48.83
60479;BME280;46321;48.398;11.754;2023-05-08T11:31:02;97024.34;;;18.64;49.55
60479;BME280;46321;48.398;11.754;2023-05-08T11:33:34;97022.47;;;18.25;49.92
60479;BME280;46321;48.398;11.754;2023-05-08T11:36:14;97018.75;;;18.13;50.72
60479;BME280;46321;48.398;11.754;2023-05-08T11:38:41;97029.34;;;17.80;51.50
60479;BME280;46321;48.398;11.754;2023-05-08T11:41:21;97016.53;;;18.03;51.28
60479;BME280;46321;48.398;11.754;2023-05-08T11:44:07;97013.47;;;18.59;50.60
60479;BME280;46321;48.398;11.754;2023-05-08T11:46:53;97021.22;;;18.28;51.85
60479;BME280;46321;48.398;11.754;2023-05-08T11:49:21;97018.16;;;18.04;51.22
60479;BME280;46321;48.398;11.754;2023-05-08T11:51:48;97028.13;;;17.90;53.08
60479;BME280;46321;48.398;11.754;2023-05-08T11:54:16;97025.00;;;17.86;52.28
60479;BME280;46321;48.398;11.754;2023-05-08T11:56:42;97012.63;;;18.05;51.94
60479;BME280;46321;48.398;11.754;2023-05-08T11:59:09;97025.59;;;17.95;52.26
60479;BME280;46321;48.398;11.754;2023-05-08T12:01:34;97020.47;;;17.87;51.11
60479;BME280;46321;48.398;11.754;2023-05-08T12:04:07;97024.94;;;18.27;50.56
60479;BME280;46321;48.398;11.754;2023-05-08T12:06:34;97014.06;;;18.01;50.73
60479;BME280;46321;48.398;11.754;2023-05-08T12:09:01;97019.31;;;18.35;50.27
60479;BME280;46321;48.398;11.754;2023-05-08T12:11:29;97010.91;;;18.31;49.87
60479;BME280;46321;48.398;11.754;2023-05-08T12:13:55;97017.53;;;18.08;50.96
60479;BME280;46321;48.398;11.754;2023-05-08T12:16:22;97026.03;;;17.99;50.78
60479;BME280;46321;48.398;11.754;2023-05-08T12:18:51;97018.81;;;17.92;51.30
60479;BME280;46321;48.398;11.754;2023-05-08T12:21:17;97017.31;;;18.17;50.33
60479;BME280;46321;48.398;11.754;2023-05-08T12:23:43;97030.94;;;18.08;50.03
60479;BME280;46321;48.398;11.754;2023-05-08T12:26:09;97031.97;;;18.21;50.67
60479;BME280;46321;48.398;11.754;2023-05-08T12:28:36;97019.72;;;18.46;50.09
60479;BME280;46321;48.398;11.754;2023-05-08T12:31:02;97020.81;;;18.17;50.59
60479;BME280;46321;48.398;11.754;2023-05-08T12:33:27;97021.91;;;18.03;51.07
60479;BME280;46321;48.398;11.754;2023-05-08T12:35:56;97018.91;;;17.58;51.36
60479;BME280;46321;48.398;11.754;2023-05-08T12:38:28;97022.81;;;17.56;51.97
60479;BME280;46321;48.398;11.754;2023-05-08T12:40:54;97015.16;;;17.66;51.67
60479;BME280;46321;48.398;11.754;2023-05-08T12:43:20;97016.09;;;18.13;50.65
60479;BME280;46321;48.398;11.754;2023-05-08T12:45:54;97015.78;;;18.41;50.25
60479;BME280;46321;48.398;11.754;2023-05-08T12:48:19;97009.28;;;18.24;50.88
60479;BME280;46321;48.398;11.754;2023-05-08T12:50:45;97006.44;;;18.58;51.45
60479;BME280;46321;48.398;11.754;2023-05-08T12:53:15;97019.09;;;18.44;51.37
60479;BME280;46321;48.398;11.754;2023-05-08T12:55:59;97014.56;;;18.37;51.00
60479;BME280;46321;48.398;11.754;2023-05-08T12:58:28;97021.25;;;18.07;51.66
60479;BME280;46321;48.398;11.754;2023-05-08T13:01:03;97016.50;;;18.16;50.77
60479;BME280;46321;48.398;11.754;2023-05-08T13:03:30;97019.00;;;18.04;51.38
60479;BME280;46321;48.398;11.754;2023-05-08T13:05:57;97023.00;;;17.54;52.86
60479;BME280;46321;48.398;11.754;2023-05-08T13:08:36;97019.06;;;17.57;52.16
60479;BME280;46321;48.398;11.754;2023-05-08T13:11:05;97015.59;;;17.56;52.35
60479;BME280;46321;48.398;11.754;2023-05-08T13:13:35;97015.59;;;17.56;52.16
60479;BME280;46321;48.398;11.754;2023-05-08T13:16:02;97009.41;;;17.62;53.55
60479;BME280;46321;48.398;11.754;2023-05-08T13:18:27;97006.75;;;17.62;52.76
60479;BME280;46321;48.398;11.754;2023-05-08T13:20:53;97002.59;;;17.80;52.34